Millhaven, Canada
Current Conditions -  °F | °C
As of 11:00 PM on Monday 26 Jan 2015 (Local Time) from CYGK Reporting Station
Light Snow Light Snow  
Wind Chill: -13°   Ceiling: 3000
Heat Index:   Visibility: 6mi
Dew Point: -4°   Wind: 15mph
Humidity: 66%   Direction: 40°NE
Pressure: 30.05"   Gusts: 23mph
Location:  44.2°N, 76.75°W
Report Text: CYGK 270400Z 04013G20KT 6SM -SN OVC030 M15/M20 A3005 RMK SC8 LAST STFD OBS/NEXT 271100UTC SLP183
Loading
Personal Weather Stations






























Interactive Weather Map New forecast layout! Learn more

10-Day Weather Forecast

Advertisements
Track Severe Weather on mobile